createdAt,value
2023-05-02T03:37:36.067Z,16.27
2023-05-02T03:40:15.074Z,16.83
2023-05-02T03:45:48.145Z,13.88
2023-05-02T03:48:16.097Z,14.57
2023-05-02T03:50:43.943Z,12.43
2023-05-02T03:53:11.271Z,16.17
2023-05-02T03:55:41.784Z,17.65
2023-05-02T03:58:09.326Z,16.77
2023-05-02T04:00:36.802Z,17.55
2023-05-02T04:03:06.194Z,16.52
2023-05-02T04:05:33.469Z,18.90
2023-05-02T04:08:00.748Z,15.02
2023-05-02T04:10:28.124Z,15.73
2023-05-02T04:12:55.708Z,17.35
2023-05-02T04:15:37.150Z,15.75
2023-05-02T04:18:04.808Z,17.27
2023-05-02T04:20:32.454Z,16.00
2023-05-02T04:22:59.722Z,15.63
2023-05-02T04:25:31.116Z,16.35
2023-05-02T04:28:01.322Z,16.63
2023-05-02T04:30:39.283Z,17.83
2023-05-02T04:33:06.672Z,17.50
2023-05-02T04:35:48.120Z,18.27
2023-05-02T04:38:15.927Z,17.65
2023-05-02T04:40:46.516Z,16.48
2023-05-02T04:43:24.585Z,17.20
2023-05-02T04:45:52.674Z,13.40
2023-05-02T04:48:36.223Z,12.80
2023-05-02T04:51:11.331Z,16.50
2023-05-02T04:53:39.095Z,14.35
2023-05-02T04:56:13.309Z,14.98
2023-05-02T04:58:47.130Z,15.02
2023-05-02T05:01:14.370Z,20.33
2023-05-02T05:03:52.796Z,13.48
2023-05-02T05:06:29.001Z,13.07
2023-05-02T05:09:16.789Z,13.45
2023-05-02T05:11:54.441Z,14.43
2023-05-02T05:14:22.235Z,12.93
2023-05-02T05:16:49.926Z,11.93
2023-05-02T05:19:28.229Z,12.48
2023-05-02T05:21:55.973Z,12.00
2023-05-02T05:24:24.127Z,9.23
2023-05-02T05:26:52.994Z,9.18
2023-05-02T05:29:21.976Z,10.15
2023-05-02T05:31:50.349Z,9.43
2023-05-02T05:34:18.409Z,8.18
2023-05-02T05:36:45.516Z,6.57
2023-05-02T05:39:20.753Z,8.60
2023-05-02T05:41:49.248Z,6.45
2023-05-02T05:44:21.928Z,6.50
2023-05-02T05:46:55.238Z,5.85
2023-05-02T05:49:25.334Z,6.18
2023-05-02T05:51:59.779Z,4.90
2023-05-02T05:54:28.744Z,5.60
2023-05-02T05:57:11.525Z,5.05
2023-05-02T05:59:38.823Z,4.63
2023-05-02T06:05:06.517Z,5.43
2023-05-02T06:07:46.185Z,5.20
2023-05-02T06:10:13.552Z,5.68
2023-05-02T06:12:43.391Z,6.32
2023-05-02T06:15:10.643Z,5.00
2023-05-02T06:17:37.962Z,4.85
2023-05-02T06:20:05.658Z,5.25
2023-05-02T06:22:32.836Z,4.68
2023-05-02T06:25:11.151Z,5.53
2023-05-02T06:27:38.079Z,5.75
2023-05-02T06:30:06.166Z,4.20
2023-05-02T06:32:44.324Z,5.88
2023-05-02T06:35:21.804Z,6.57
2023-05-02T06:37:48.899Z,6.93
2023-05-02T06:40:22.853Z,4.80
2023-05-02T06:45:24.287Z,5.97
2023-05-02T06:48:00.383Z,4.30
2023-05-02T06:50:28.679Z,3.55
2023-05-02T06:53:03.665Z,4.70
2023-05-02T06:55:39.465Z,3.88
2023-05-02T06:58:16.655Z,6.30
2023-05-02T07:00:54.598Z,3.80
2023-05-02T07:03:21.679Z,3.95
2023-05-02T07:05:48.591Z,5.22
2023-05-02T07:08:15.899Z,8.40
2023-05-02T07:10:42.819Z,5.68
2023-05-02T07:13:13.425Z,5.78
2023-05-02T07:15:42.323Z,5.38
2023-05-02T07:18:09.676Z,4.88
2023-05-02T07:20:43.325Z,4.97
2023-05-02T07:23:21.969Z,10.25
2023-05-02T07:26:01.411Z,4.60
2023-05-02T07:28:29.565Z,3.85
2023-05-02T12:06:39.690Z,5.90
2023-05-02T12:09:26.193Z,4.65
2023-05-02T12:12:05.273Z,3.30
2023-05-02T12:14:42.545Z,3.70
2023-05-02T12:17:24.067Z,3.65
2023-05-02T12:19:56.443Z,5.78
2023-05-02T12:22:34.497Z,3.92
2023-05-02T12:25:08.305Z,5.65
2023-05-02T12:27:39.359Z,6.10
2023-05-02T12:30:06.990Z,5.22
2023-05-02T12:32:45.783Z,5.30
2023-05-02T12:35:20.526Z,4.10
2023-05-02T12:37:56.650Z,4.50
2023-05-02T12:40:24.507Z,3.80
2023-05-02T12:43:04.389Z,5.00
2023-05-02T12:45:41.599Z,5.55
2023-05-02T12:48:26.808Z,4.97
2023-05-02T12:51:05.114Z,4.57
2023-05-02T12:53:45.378Z,3.20
2023-05-02T12:56:27.896Z,4.18
2023-05-02T12:59:08.161Z,4.15
2023-05-02T13:01:42.687Z,3.65
2023-05-02T13:04:19.775Z,6.28
2023-05-02T13:06:54.584Z,4.03
2023-05-02T13:09:28.258Z,4.95
2023-05-02T13:14:54.708Z,2.75
2023-05-02T13:17:32.345Z,3.55
2023-05-02T13:20:10.876Z,4.25
2023-05-02T13:22:46.625Z,2.75
2023-05-02T13:25:23.641Z,8.68
2023-05-02T13:27:57.507Z,3.63
2023-05-02T13:30:38.815Z,3.80
2023-05-02T13:33:18.953Z,3.45
2023-05-02T13:35:52.429Z,3.25
2023-05-02T13:38:31.536Z,2.90
2023-05-02T13:41:22.837Z,6.70
2023-05-02T13:44:00.614Z,2.60
2023-05-02T13:52:31.398Z,3.38
2023-05-02T13:55:22.364Z,4.22
2023-05-02T13:58:01.284Z,4.20
2023-05-02T14:00:36.409Z,3.75
2023-05-02T14:03:17.589Z,2.35
2023-05-02T14:05:52.784Z,4.07
2023-05-02T14:08:30.711Z,5.53
2023-05-02T14:11:16.763Z,3.90
2023-05-02T14:13:52.927Z,3.67
2023-05-02T14:16:30.351Z,3.78
2023-05-02T14:19:20.411Z,5.38
2023-05-02T14:31:12.572Z,5.77
2023-05-02T14:33:50.593Z,4.15
2023-05-02T14:36:27.846Z,4.03
2023-05-02T14:50:37.179Z,5.35
2023-05-02T15:05:49.329Z,4.47
2023-05-02T15:08:27.948Z,6.22
2023-05-02T15:11:06.277Z,9.97
2023-05-02T15:25:43.402Z,7.03
2023-05-02T15:28:17.452Z,7.30
2023-05-02T15:33:34.868Z,6.40
2023-05-02T15:36:33.942Z,6.70
2023-05-02T15:42:27.348Z,5.85
2023-05-02T15:45:08.068Z,6.65
2023-05-02T15:47:48.341Z,4.57
2023-05-02T15:50:24.501Z,4.75
2023-05-02T15:53:02.393Z,9.18
2023-05-02T15:56:03.839Z,10.40
2023-05-02T15:58:50.143Z,6.05
2023-05-02T16:01:37.893Z,6.05
2023-05-02T16:04:16.560Z,4.82
2023-05-02T16:06:51.441Z,4.35
2023-05-02T16:09:31.418Z,3.60
2023-05-02T16:12:18.848Z,10.40
2023-05-02T16:14:54.010Z,5.33
2023-05-02T16:17:49.300Z,3.97
2023-05-02T16:20:57.398Z,6.00
2023-05-02T16:23:38.717Z,4.80
2023-05-02T16:26:16.397Z,5.57
2023-05-02T16:28:56.934Z,10.50
2023-05-02T16:34:23.414Z,5.32
2023-05-02T16:37:25.393Z,6.90
2023-05-02T16:40:01.672Z,7.97
2023-05-02T16:42:36.616Z,6.38
2023-05-02T16:45:14.867Z,6.95
2023-05-02T16:47:50.669Z,6.10
2023-05-02T16:50:24.386Z,9.13
2023-05-02T16:53:00.584Z,6.10
2023-05-02T16:55:35.127Z,10.95
2023-05-02T16:58:10.739Z,8.43
2023-05-02T17:00:48.464Z,8.07
2023-05-02T17:03:30.234Z,6.33
2023-05-02T17:06:08.317Z,6.70
2023-05-02T17:08:49.784Z,7.72
2023-05-02T17:11:27.210Z,9.10
2023-05-02T17:14:07.633Z,7.65
2023-05-02T17:16:49.958Z,6.57
2023-05-02T17:19:25.679Z,4.65
2023-05-02T17:22:02.377Z,7.05
2023-05-02T17:24:37.435Z,6.72
2023-05-02T17:27:12.119Z,7.05
2023-05-02T17:29:52.309Z,5.93
2023-05-02T17:32:37.851Z,5.75
2023-05-02T17:37:58.403Z,8.87
2023-05-02T17:40:32.374Z,8.43
2023-05-02T17:43:07.999Z,5.93
2023-05-02T17:45:42.584Z,4.35
2023-05-02T17:48:27.845Z,4.82
2023-05-02T17:51:05.898Z,6.20
2023-05-02T17:54:01.301Z,6.05
2023-05-02T17:56:36.988Z,6.72
2023-05-02T17:59:15.565Z,6.60
2023-05-02T18:02:02.178Z,6.82
2023-05-02T18:04:37.481Z,5.00
2023-05-02T18:07:15.588Z,6.13
2023-05-02T18:10:02.890Z,5.80
2023-05-02T18:12:41.004Z,5.47
2023-05-02T18:15:18.106Z,6.13
2023-05-02T18:17:52.904Z,11.80
2023-05-02T18:20:54.605Z,5.20
2023-05-02T18:23:28.464Z,6.70
2023-05-02T18:26:03.539Z,6.57
2023-05-02T18:31:21.118Z,7.75
2023-05-02T18:54:58.174Z,5.40
2023-05-02T19:00:27.468Z,10.48
2023-05-02T19:03:03.249Z,8.10
2023-05-02T19:05:44.259Z,6.30
2023-05-02T19:14:19.485Z,4.57
2023-05-02T19:28:25.569Z,5.30
2023-05-02T19:31:10.703Z,5.57
2023-05-02T19:39:58.119Z,9.10
2023-05-02T19:45:41.512Z,44.50
2023-05-02T19:51:14.527Z,5.25
2023-05-02T19:53:58.571Z,4.28
2023-05-02T19:56:39.840Z,6.13
2023-05-02T19:59:13.541Z,3.97
2023-05-02T20:01:49.561Z,6.13
2023-05-02T20:04:25.223Z,8.40
2023-05-02T20:07:01.034Z,5.85
2023-05-02T20:09:34.519Z,6.07
2023-05-02T20:12:10.612Z,4.55
2023-05-02T20:14:48.408Z,6.55
2023-05-02T20:17:22.530Z,10.02
2023-05-02T20:20:00.653Z,5.00
2023-05-02T20:22:36.582Z,7.37
2023-05-02T20:25:11.994Z,6.70
2023-05-02T20:27:47.436Z,4.00
2023-05-02T20:30:21.537Z,5.40
2023-05-02T20:33:06.983Z,6.28
2023-05-02T20:35:49.560Z,4.10
2023-05-02T20:38:25.588Z,3.75
2023-05-02T20:41:00.898Z,4.05
2023-05-02T20:43:36.760Z,5.03
2023-05-02T20:46:11.905Z,3.50
2023-05-02T20:48:48.061Z,5.05
2023-05-02T20:51:21.824Z,4.68
2023-05-02T20:53:59.899Z,3.35
2023-05-02T20:56:34.665Z,6.18
2023-05-02T20:59:10.488Z,3.57
2023-05-02T21:01:44.568Z,5.68
2023-05-02T21:04:18.682Z,2.95
2023-05-02T21:06:56.950Z,4.15
2023-05-02T21:09:31.603Z,2.72
2023-05-02T21:12:07.662Z,2.72
2023-05-02T21:14:41.645Z,3.65
2023-05-02T21:19:56.258Z,3.15
2023-05-02T21:22:33.630Z,4.40
2023-05-02T21:25:09.844Z,3.45
2023-05-02T21:27:43.506Z,3.35
2023-05-02T21:30:22.962Z,5.80
2023-05-02T21:32:58.678Z,3.30
2023-05-02T21:35:34.322Z,5.30
2023-05-02T21:38:10.773Z,4.63
2023-05-02T21:40:45.667Z,4.60
2023-05-02T21:43:21.652Z,4.15
2023-05-02T21:45:57.224Z,2.90
2023-05-02T21:48:31.679Z,6.32
2023-05-02T21:51:07.382Z,3.97
2023-05-02T21:53:43.617Z,4.55
2023-05-02T21:56:22.571Z,2.80
2023-05-02T21:59:00.778Z,8.27
2023-05-02T22:01:36.708Z,3.20
2023-05-02T22:04:10.504Z,3.35
2023-05-02T22:06:45.637Z,3.75
2023-05-02T22:09:23.187Z,4.33
2023-05-02T22:11:58.120Z,4.40
2023-05-02T22:14:44.557Z,3.47
2023-05-02T22:17:22.953Z,2.55
2023-05-02T22:19:56.571Z,2.47
2023-05-02T22:22:31.679Z,5.07
2023-05-02T22:25:05.613Z,7.72
2023-05-02T22:30:16.616Z,5.22
2023-05-02T22:32:50.785Z,3.78
2023-05-02T22:35:28.480Z,3.05
2023-05-02T22:38:05.340Z,4.95
2023-05-02T22:40:40.624Z,4.80
2023-05-02T22:43:14.537Z,2.90
2023-05-02T22:48:28.083Z,2.45
2023-05-02T22:51:03.710Z,2.95
2023-05-02T22:53:39.062Z,4.87
2023-05-02T22:56:21.254Z,4.00
2023-05-02T22:58:56.954Z,4.50
2023-05-02T23:01:33.911Z,2.97
2023-05-02T23:04:07.585Z,3.42
2023-05-02T23:06:45.968Z,3.08
2023-05-02T23:09:21.033Z,8.83
2023-05-02T23:11:58.598Z,2.45
2023-05-02T23:14:33.568Z,4.83
2023-05-02T23:17:09.379Z,3.03
2023-05-02T23:19:46.804Z,3.75
2023-05-02T23:22:21.631Z,3.42
